Time;durP1;ratioP1;P1;durP2;ratioP2;P2;SDS_P1;SDS_P2;PMS_P1;PMS_P2;Temp;Humidity;BMP_temperature;BMP_pressure;BME280_temperature;BME280_humidity;BME280_pressure;Samples;Min_cycle;Max_cycle;Signal;HPM_P1;HPM_P2
2023/07/02 00:00:01;;;;;;;10.85;8.13;;;;;;;;;;5093465;28;20209;-44
2023/07/02 00:02:36;;;;;;;14.13;9.05;;;;;;;;;;5093356;28;20218;-44
2023/07/02 00:05:04;;;;;;;15.00;9.55;;;;;;;;;;5093978;28;20191;-44
2023/07/02 00:07:32;;;;;;;12.77;8.90;;;;;;;;;;5093656;28;20259;-44
2023/07/02 00:10:00;;;;;;;12.45;9.50;;;;;;;;;;5093958;28;20202;-43
2023/07/02 00:12:27;;;;;;;13.85;9.25;;;;;;;;;;5094929;28;20555;-43
2023/07/02 00:14:54;;;;;;;14.75;8.88;;;;;;;;;;5097518;28;20209;-44
2023/07/02 00:17:21;;;;;;;13.73;9.57;;;;;;;;;;5097402;28;20293;-45
2023/07/02 00:19:51;;;;;;;12.63;9.13;;;;;;;;;;5097609;28;20203;-44
2023/07/02 00:22:19;;;;;;;13.48;9.48;;;;;;;;;;5097356;28;20276;-43
2023/07/02 00:24:46;;;;;;;11.93;9.02;;;;;;;;;;5097421;28;20707;-43
2023/07/02 00:27:13;;;;;;;15.70;9.35;;;;;;;;;;5097382;28;20206;-44
2023/07/02 00:29:41;;;;;;;13.35;9.15;;;;;;;;;;5096293;28;20213;-43
2023/07/02 00:32:08;;;;;;;14.93;9.48;;;;;;;;;;5097173;28;20198;-43
2023/07/02 00:34:35;;;;;;;11.88;8.75;;;;;;;;;;5096163;28;20631;-43
2023/07/02 00:37:02;;;;;;;11.95;8.43;;;;;;;;;;5097070;28;20240;-43
2023/07/02 00:39:30;;;;;;;13.00;9.55;;;;;;;;;;5097099;28;20229;-43
2023/07/02 00:42:02;;;;;;;13.65;9.50;;;;;;;;;;5095773;28;20613;-43
2023/07/02 00:44:30;;;;;;;12.75;8.70;;;;;;;;;;5096113;28;20210;-43
2023/07/02 00:46:57;;;;;;;14.88;9.05;;;;;;;;;;5096873;28;20210;-43
2023/07/02 00:49:25;;;;;;;14.65;9.95;;;;;;;;;;5095524;28;20199;-43
2023/07/02 00:51:52;;;;;;;15.00;10.07;;;;;;;;;;5096892;28;20234;-43
2023/07/02 00:54:20;;;;;;;16.13;10.20;;;;;;;;;;5095841;28;20259;-43
2023/07/02 00:56:47;;;;;;;15.20;9.70;;;;;;;;;;5096634;28;20728;-43
2023/07/02 00:59:15;;;;;;;13.45;9.48;;;;;;;;;;5095844;28;20256;-43
2023/07/02 01:01:42;;;;;;;15.15;10.05;;;;;;;;;;5096581;28;20214;-43
2023/07/02 01:04:12;;;;;;;15.98;9.32;;;;;;;;;;5096770;28;20199;-45
2023/07/02 01:06:40;;;;;;;17.05;9.90;;;;;;;;;;5096646;28;20543;-43
2023/07/02 01:09:10;;;;;;;13.73;9.43;;;;;;;;;;5096477;28;20214;-43
2023/07/02 01:11:46;;;;;;;21.67;10.07;;;;;;;;;;5096507;28;20658;-43
2023/07/02 01:14:16;;;;;;;15.25;10.18;;;;;;;;;;5096663;28;20203;-44
2023/07/02 01:16:44;;;;;;;16.60;10.65;;;;;;;;;;5078653;28;20205;-44
2023/07/02 01:19:33;;;;;;;15.70;10.15;;;;;;;;;;5095177;28;20205;-44
2023/07/02 01:22:01;;;;;;;14.57;9.90;;;;;;;;;;5095431;28;20213;-44
2023/07/02 01:24:28;;;;;;;12.00;10.10;;;;;;;;;;5094978;28;20231;-44
2023/07/02 01:26:56;;;;;;;14.45;10.18;;;;;;;;;;5078543;28;20195;-44
2023/07/02 01:29:23;;;;;;;14.00;10.05;;;;;;;;;;5095181;28;20211;-45
2023/07/02 01:31:50;;;;;;;16.73;9.60;;;;;;;;;;5095754;28;20750;-44
2023/07/02 01:34:17;;;;;;;15.77;10.23;;;;;;;;;;5095968;28;20209;-44
2023/07/02 01:36:44;;;;;;;13.23;9.93;;;;;;;;;;5094657;28;20730;-44
2023/07/02 01:39:12;;;;;;;19.50;10.98;;;;;;;;;;5095981;28;20199;-44
2023/07/02 01:41:45;;;;;;;16.25;11.00;;;;;;;;;;5094307;28;20218;-44
2023/07/02 01:44:12;;;;;;;21.02;10.40;;;;;;;;;;5094537;28;20214;-44
2023/07/02 01:46:39;;;;;;;12.60;9.73;;;;;;;;;;5096057;28;20191;-45
2023/07/02 01:49:07;;;;;;;15.25;10.57;;;;;;;;;;5095470;28;20203;-44
2023/07/02 01:51:34;;;;;;;20.63;11.98;;;;;;;;;;5094181;28;20639;-44
2023/07/02 01:54:01;;;;;;;12.32;9.57;;;;;;;;;;5095483;28;20212;-44
2023/07/02 01:56:28;;;;;;;15.25;10.40;;;;;;;;;;5094108;28;20248;-45
2023/07/02 01:58:56;;;;;;;16.92;10.85;;;;;;;;;;5094295;28;20210;-43
2023/07/02 02:01:23;;;;;;;17.30;10.95;;;;;;;;;;5094175;28;20245;-44
2023/07/02 02:03:50;;;;;;;17.67;11.00;;;;;;;;;;5095101;28;20199;-43
2023/07/02 02:06:17;;;;;;;16.40;11.30;;;;;;;;;;5095159;28;20677;-43
2023/07/02 02:08:45;;;;;;;18.20;11.40;;;;;;;;;;5094039;28;20214;-43
2023/07/02 02:11:12;;;;;;;15.90;11.95;;;;;;;;;;5094993;28;20554;-43
2023/07/02 02:13:39;;;;;;;15.98;11.82;;;;;;;;;;5093697;28;20199;-43
2023/07/02 02:16:06;;;;;;;13.85;10.85;;;;;;;;;;5094112;28;20226;-43
2023/07/02 02:18:34;;;;;;;16.65;11.07;;;;;;;;;;5095133;28;20215;-43
2023/07/02 02:21:01;;;;;;;21.35;11.85;;;;;;;;;;5094973;28;20211;-43
2023/07/02 02:23:29;;;;;;;16.58;10.85;;;;;;;;;;5094861;28;20234;-43
2023/07/02 02:25:57;;;;;;;16.10;11.63;;;;;;;;;;5094619;28;20202;-43
2023/07/02 02:28:24;;;;;;;13.65;10.50;;;;;;;;;;5094963;28;20233;-43
2023/07/02 02:30:51;;;;;;;15.82;11.27;;;;;;;;;;5094871;28;20264;-45
2023/07/02 02:33:21;;;;;;;15.32;10.90;;;;;;;;;;5093411;28;20690;-44
2023/07/02 02:35:48;;;;;;;15.73;10.85;;;;;;;;;;5092916;28;20252;-44
2023/07/02 02:38:16;;;;;;;15.27;11.45;;;;;;;;;;5094494;28;20615;-45
2023/07/02 02:40:43;;;;;;;23.13;10.98;;;;;;;;;;5094891;28;20206;-44
2023/07/02 02:43:16;;;;;;;15.43;10.75;;;;;;;;;;5093978;28;20205;-43
2023/07/02 02:45:45;;;;;;;16.70;11.18;;;;;;;;;;5093858;28;20585;-44
2023/07/02 02:48:12;;;;;;;19.80;12.10;;;;;;;;;;5094526;28;20706;-44
2023/07/02 02:50:42;;;;;;;16.95;11.77;;;;;;;;;;5094611;28;20195;-44
2023/07/02 02:53:10;;;;;;;16.38;11.73;;;;;;;;;;5094576;28;20564;-44
2023/07/02 02:55:37;;;;;;;14.70;11.98;;;;;;;;;;5094358;28;20207;-44
2023/07/02 02:58:05;;;;;;;15.65;11.63;;;;;;;;;;5093454;28;20203;-45
2023/07/02 03:00:32;;;;;;;18.52;11.77;;;;;;;;;;5093128;28;20213;-44
2023/07/02 03:02:59;;;;;;;16.33;10.75;;;;;;;;;;5093157;28;20295;-44
2023/07/02 03:05:27;;;;;;;15.25;11.18;;;;;;;;;;5093299;28;20198;-44
2023/07/02 03:07:54;;;;;;;17.48;12.00;;;;;;;;;;5093890;28;20195;-44
2023/07/02 03:10:21;;;;;;;19.08;11.38;;;;;;;;;;5094100;28;20225;-44
2023/07/02 03:12:49;;;;;;;17.13;11.90;;;;;;;;;;5093158;28;20211;-44
2023/07/02 03:15:17;;;;;;;16.48;11.90;;;;;;;;;;5094164;28;20256;-45
2023/07/02 03:17:44;;;;;;;16.33;11.98;;;;;;;;;;5094142;28;20206;-45
2023/07/02 03:20:11;;;;;;;18.73;11.35;;;;;;;;;;5093992;28;20218;-44
2023/07/02 03:22:39;;;;;;;16.65;11.30;;;;;;;;;;5093997;28;20231;-43
2023/07/02 03:25:06;;;;;;;18.15;11.93;;;;;;;;;;5094390;28;20203;-46
2023/07/02 03:27:34;;;;;;;14.40;11.20;;;;;;;;;;5093862;28;20666;-46
2023/07/02 03:30:01;;;;;;;15.63;12.05;;;;;;;;;;5093906;28;20206;-45
2023/07/02 03:32:28;;;;;;;16.25;10.98;;;;;;;;;;5094085;28;20210;-45
2023/07/02 03:34:55;;;;;;;18.10;11.55;;;;;;;;;;5092827;28;20195;-45
2023/07/02 03:37:22;;;;;;;16.02;11.82;;;;;;;;;;5093712;28;20202;-44
2023/07/02 03:39:49;;;;;;;15.10;11.60;;;;;;;;;;5093879;28;20198;-44
2023/07/02 03:42:16;;;;;;;18.40;11.75;;;;;;;;;;5093684;28;20268;-44
2023/07/02 03:44:43;;;;;;;16.85;11.85;;;;;;;;;;5093732;28;20241;-44
2023/07/02 03:47:12;;;;;;;18.92;11.75;;;;;;;;;;5092678;28;20227;-44
2023/07/02 03:49:39;;;;;;;18.70;11.90;;;;;;;;;;5093464;28;20203;-44
2023/07/02 03:52:07;;;;;;;14.75;11.00;;;;;;;;;;5094082;28;20213;-44
2023/07/02 03:54:34;;;;;;;15.38;11.23;;;;;;;;;;5093710;28;20221;-44
2023/07/02 03:57:01;;;;;;;17.27;12.57;;;;;;;;;;5093766;28;20207;-44
2023/07/02 03:59:28;;;;;;;18.05;12.43;;;;;;;;;;5093509;28;20738;-44
2023/07/02 04:01:55;;;;;;;18.38;13.13;;;;;;;;;;5093495;28;20260;-45
2023/07/02 04:04:22;;;;;;;20.48;13.55;;;;;;;;;;5093714;28;20550;-44
2023/07/02 04:06:50;;;;;;;17.48;13.18;;;;;;;;;;5093661;28;20198;-45
2023/07/02 04:09:18;;;;;;;19.13;11.88;;;;;;;;;;5093319;28;20678;-44
2023/07/02 04:11:46;;;;;;;16.10;12.10;;;;;;;;;;5093502;28;20225;-44
2023/07/02 04:14:13;;;;;;;20.65;13.48;;;;;;;;;;5093367;28;20203;-45
2023/07/02 04:16:45;;;;;;;17.50;13.02;;;;;;;;;;5093292;28;20565;-45
2023/07/02 04:19:12;;;;;;;17.48;12.77;;;;;;;;;;5093368;28;20684;-46
2023/07/02 04:21:40;;;;;;;19.27;13.38;;;;;;;;;;5093561;28;20209;-45
2023/07/02 04:24:07;;;;;;;17.83;13.27;;;;;;;;;;5092953;28;20242;-45
2023/07/02 04:26:36;;;;;;;22.83;12.25;;;;;;;;;;5093330;28;20252;-45
2023/07/02 04:29:23;;;;;;;18.17;12.80;;;;;;;;;;5093227;28;20208;-45
2023/07/02 04:31:50;;;;;;;17.88;12.93;;;;;;;;;;5093420;28;20213;-46
2023/07/02 04:34:21;;;;;;;20.85;12.40;;;;;;;;;;5093293;28;20290;-44
2023/07/02 04:36:49;;;;;;;18.98;12.95;;;;;;;;;;5093505;28;20186;-44
2023/07/02 04:39:19;;;;;;;17.95;13.18;;;;;;;;;;5093150;28;20252;-44
2023/07/02 04:41:48;;;;;;;19.00;13.88;;;;;;;;;;5093052;28;20199;-44
2023/07/02 04:44:15;;;;;;;20.52;13.30;;;;;;;;;;5093209;28;20222;-44
2023/07/02 04:46:43;;;;;;;19.25;13.55;;;;;;;;;;5093244;28;20198;-44
2023/07/02 04:49:10;;;;;;;17.13;12.35;;;;;;;;;;5093149;28;20198;-44
2023/07/02 04:51:37;;;;;;;23.33;13.63;;;;;;;;;;5093155;28;20198;-45
2023/07/02 04:54:04;;;;;;;17.45;13.27;;;;;;;;;;5092924;28;20705;-45
2023/07/02 04:56:32;;;;;;;15.63;11.75;;;;;;;;;;5093127;28;20581;-46
2023/07/02 04:58:59;;;;;;;23.13;14.50;;;;;;;;;;5094765;28;20198;-44
2023/07/02 05:01:28;;;;;;;19.40;13.68;;;;;;;;;;5096784;28;20203;-44
2023/07/02 05:03:55;;;;;;;20.33;13.68;;;;;;;;;;5096760;28;20219;-45
2023/07/02 05:06:22;;;;;;;18.60;13.63;;;;;;;;;;5096550;28;20202;-44
2023/07/02 05:08:49;;;;;;;20.30;14.02;;;;;;;;;;5096665;28;20226;-44
2023/07/02 05:11:16;;;;;;;20.05;13.98;;;;;;;;;;5096781;28;20202;-44
2023/07/02 05:13:43;;;;;;;18.70;13.85;;;;;;;;;;5096663;28;20618;-45
2023/07/02 05:16:11;;;;;;;16.85;12.70;;;;;;;;;;5096715;28;20217;-44
2023/07/02 05:18:38;;;;;;;19.10;13.88;;;;;;;;;;5096431;28;20248;-44
2023/07/02 05:21:05;;;;;;;23.52;14.15;;;;;;;;;;5096162;28;20583;-44
2023/07/02 05:23:32;;;;;;;22.13;13.23;;;;;;;;;;5095534;28;20230;-44
2023/07/02 05:25:59;;;;;;;20.83;14.20;;;;;;;;;;5095574;28;20191;-48
2023/07/02 05:28:26;;;;;;;24.30;13.38;;;;;;;;;;5095938;28;20217;-46
2023/07/02 05:30:53;;;;;;;17.73;12.88;;;;;;;;;;5095930;28;20187;-45
2023/07/02 05:33:21;;;;;;;17.50;13.13;;;;;;;;;;5095580;28;20252;-43
2023/07/02 05:35:49;;;;;;;18.40;13.15;;;;;;;;;;5095230;28;20202;-44
2023/07/02 05:38:17;;;;;;;16.67;12.80;;;;;;;;;;5094189;28;20609;-45
2023/07/02 05:40:45;;;;;;;19.67;12.73;;;;;;;;;;5095573;28;20203;-43
2023/07/02 05:43:13;;;;;;;18.27;13.90;;;;;;;;;;5092878;28;20264;-45
2023/07/02 05:45:41;;;;;;;18.50;12.88;;;;;;;;;;5095650;28;20210;-43
2023/07/02 05:48:08;;;;;;;18.55;12.77;;;;;;;;;;5095184;28;20214;-43
2023/07/02 05:50:35;;;;;;;17.42;12.55;;;;;;;;;;5095445;28;20224;-45
2023/07/02 05:53:02;;;;;;;16.33;11.95;;;;;;;;;;5095341;28;20569;-47
2023/07/02 05:55:30;;;;;;;15.32;11.00;;;;;;;;;;5095298;28;20244;-46
2023/07/02 05:58:01;;;;;;;16.25;11.15;;;;;;;;;;5094996;28;20659;-46
2023/07/02 06:00:29;;;;;;;15.18;10.85;;;;;;;;;;5094735;28;20195;-46
2023/07/02 06:02:56;;;;;;;16.00;10.35;;;;;;;;;;5094126;28;20264;-46
2023/07/02 06:05:23;;;;;;;13.68;9.48;;;;;;;;;;5094794;28;20274;-48
2023/07/02 06:07:51;;;;;;;15.23;10.90;;;;;;;;;;5095151;28;20191;-48
2023/07/02 06:10:18;;;;;;;14.55;9.90;;;;;;;;;;5093763;28;20195;-45
2023/07/02 06:12:45;;;;;;;14.02;10.00;;;;;;;;;;5092290;28;20198;-46
2023/07/02 06:15:12;;;;;;;17.55;10.05;;;;;;;;;;5094931;28;20248;-48
2023/07/02 06:17:39;;;;;;;17.83;10.43;;;;;;;;;;5094684;28;20297;-46
2023/07/02 06:20:07;;;;;;;15.65;9.77;;;;;;;;;;5095012;28;20195;-45
2023/07/02 06:22:34;;;;;;;12.98;9.13;;;;;;;;;;5094685;28;20198;-47
2023/07/02 06:25:02;;;;;;;15.75;9.40;;;;;;;;;;5094430;28;20614;-47
2023/07/02 06:27:31;;;;;;;14.88;9.10;;;;;;;;;;5094594;28;20194;-47
2023/07/02 06:29:59;;;;;;;12.32;8.25;;;;;;;;;;5094312;28;20195;-45
2023/07/02 06:32:26;;;;;;;16.88;8.85;;;;;;;;;;5094521;28;20251;-48
2023/07/02 06:34:53;;;;;;;11.52;8.27;;;;;;;;;;5094530;28;20199;-45
2023/07/02 06:37:20;;;;;;;13.55;8.25;;;;;;;;;;5091696;28;20191;-46
2023/07/02 06:39:47;;;;;;;12.80;8.10;;;;;;;;;;5094223;28;20655;-46
2023/07/02 06:42:14;;;;;;;12.40;8.32;;;;;;;;;;5094701;28;20659;-45
2023/07/02 06:44:43;;;;;;;12.45;7.80;;;;;;;;;;5093174;28;20230;-47
2023/07/02 06:47:10;;;;;;;19.00;8.60;;;;;;;;;;5094696;28;20202;-47
2023/07/02 06:49:38;;;;;;;11.07;7.40;;;;;;;;;;5093311;28;20205;-45
2023/07/02 06:52:05;;;;;;;12.35;7.85;;;;;;;;;;5094495;28;20234;-46
2023/07/02 06:54:32;;;;;;;12.45;7.60;;;;;;;;;;5094311;28;20199;-48
2023/07/02 06:56:59;;;;;;;11.50;6.72;;;;;;;;;;5093700;28;20686;-46
2023/07/02 06:59:26;;;;;;;14.90;7.50;;;;;;;;;;5094513;28;20194;-46
2023/07/02 07:01:53;;;;;;;9.93;7.22;;;;;;;;;;5094287;28;20191;-48
2023/07/02 07:04:21;;;;;;;13.15;7.45;;;;;;;;;;5093954;28;20218;-47
2023/07/02 07:06:48;;;;;;;11.38;7.10;;;;;;;;;;5094224;28;20199;-46
2023/07/02 07:09:17;;;;;;;11.63;6.80;;;;;;;;;;5094019;28;20198;-48
2023/07/02 07:11:44;;;;;;;12.68;7.13;;;;;;;;;;5093353;28;20199;-49
2023/07/02 07:14:12;;;;;;;8.77;5.60;;;;;;;;;;5093929;28;20559;-48
2023/07/02 07:16:39;;;;;;;8.90;6.40;;;;;;;;;;5094329;28;20268;-45
2023/07/02 07:19:07;;;;;;;21.08;7.20;;;;;;;;;;5093659;28;20195;-49
2023/07/02 07:21:34;;;;;;;9.15;5.68;;;;;;;;;;5093307;28;20194;-46
2023/07/02 07:24:02;;;;;;;7.22;5.15;;;;;;;;;;5090436;28;20227;-47
2023/07/02 07:26:29;;;;;;;9.75;5.13;;;;;;;;;;5093680;28;20210;-46
2023/07/02 07:28:57;;;;;;;8.38;5.63;;;;;;;;;;5093413;28;20712;-48
2023/07/02 07:31:25;;;;;;;8.35;5.53;;;;;;;;;;5093628;28;20191;-47
2023/07/02 07:33:52;;;;;;;7.57;5.65;;;;;;;;;;5093313;28;20619;-45
2023/07/02 07:36:19;;;;;;;11.07;5.85;;;;;;;;;;5093146;28;20202;-46
2023/07/02 07:38:46;;;;;;;6.82;5.03;;;;;;;;;;5093081;28;20195;-45
2023/07/02 07:41:13;;;;;;;8.82;5.25;;;;;;;;;;5093484;28;20249;-46
2023/07/02 07:43:41;;;;;;;7.22;4.53;;;;;;;;;;5093802;28;20226;-46
2023/07/02 07:46:08;;;;;;;8.13;5.25;;;;;;;;;;5093871;28;20218;-46
2023/07/02 07:48:35;;;;;;;9.02;5.30;;;;;;;;;;5093628;28;20203;-46
2023/07/02 07:51:02;;;;;;;7.40;4.75;;;;;;;;;;5093669;28;20207;-46
2023/07/02 07:53:30;;;;;;;8.60;5.30;;;;;;;;;;5093821;28;20195;-47
2023/07/02 07:55:57;;;;;;;8.38;4.68;;;;;;;;;;5093743;28;20202;-47
2023/07/02 07:58:25;;;;;;;6.63;4.45;;;;;;;;;;5093808;28;20198;-46
2023/07/02 08:00:53;;;;;;;7.35;4.45;;;;;;;;;;5092423;28;20207;-46
2023/07/02 08:03:21;;;;;;;9.60;4.45;;;;;;;;;;5093229;28;20226;-46
2023/07/02 08:05:48;;;;;;;8.57;4.72;;;;;;;;;;5093235;28;20256;-46
2023/07/02 08:08:15;;;;;;;8.32;4.85;;;;;;;;;;5093834;28;20203;-46
2023/07/02 08:10:42;;;;;;;8.50;4.78;;;;;;;;;;5093593;28;20222;-46
2023/07/02 08:13:09;;;;;;;6.60;4.63;;;;;;;;;;5093531;28;20285;-46
2023/07/02 08:15:37;;;;;;;7.07;4.55;;;;;;;;;;5093365;28;20289;-46
2023/07/02 08:18:07;;;;;;;9.68;4.78;;;;;;;;;;5093374;28;20210;-46
2023/07/02 08:20:34;;;;;;;6.43;4.13;;;;;;;;;;5093236;28;20558;-46
2023/07/02 08:23:01;;;;;;;8.52;4.43;;;;;;;;;;5093269;28;20230;-46
2023/07/02 08:25:28;;;;;;;7.20;4.82;;;;;;;;;;5093564;28;20199;-46
2023/07/02 08:27:56;;;;;;;6.80;4.93;;;;;;;;;;5093330;28;20582;-46
2023/07/02 08:30:23;;;;;;;5.82;4.10;;;;;;;;;;5093145;28;20210;-45
2023/07/02 08:32:50;;;;;;;7.65;4.70;;;;;;;;;;5093534;28;20195;-45
2023/07/02 08:35:17;;;;;;;8.30;4.40;;;;;;;;;;5097137;28;20199;-45
2023/07/02 08:37:45;;;;;;;6.55;4.53;;;;;;;;;;5097114;28;20733;-45
2023/07/02 08:40:18;;;;;;;4.40;3.90;;;;;;;;;;5097067;28;20203;-46
2023/07/02 08:42:49;;;;;;;8.50;3.90;;;;;;;;;;5097587;28;20215;-45
2023/07/02 08:45:17;;;;;;;8.48;3.80;;;;;;;;;;5096078;28;20233;-45
2023/07/02 08:47:45;;;;;;;5.95;3.72;;;;;;;;;;5097326;28;20279;-47
2023/07/02 08:50:13;;;;;;;6.15;3.67;;;;;;;;;;5097041;28;20202;-45
2023/07/02 08:52:42;;;;;;;5.97;3.92;;;;;;;;;;5096944;28;20205;-45
2023/07/02 08:55:09;;;;;;;7.13;3.88;;;;;;;;;;5096937;28;20198;-46
2023/07/02 08:57:37;;;;;;;5.90;4.20;;;;;;;;;;5095065;28;20255;-46
2023/07/02 09:00:08;;;;;;;8.02;4.22;;;;;;;;;;5096728;28;20728;-45
2023/07/02 09:02:36;;;;;;;5.88;3.80;;;;;;;;;;5096988;28;20209;-45
2023/07/02 09:05:04;;;;;;;7.15;4.20;;;;;;;;;;5096962;28;20231;-46
2023/07/02 09:07:31;;;;;;;6.05;3.92;;;;;;;;;;5096925;28;20210;-45
2023/07/02 09:09:58;;;;;;;6.72;4.15;;;;;;;;;;5095415;28;20203;-46
2023/07/02 09:12:27;;;;;;;6.22;3.90;;;;;;;;;;5096083;28;20225;-48
2023/07/02 09:14:59;;;;;;;7.55;3.63;;;;;;;;;;5096074;28;20195;-46
2023/07/02 09:17:30;;;;;;;7.18;4.05;;;;;;;;;;5096006;28;20211;-47
2023/07/02 09:20:00;;;;;;;7.53;4.03;;;;;;;;;;5095814;28;20541;-46
2023/07/02 09:22:28;;;;;;;9.18;3.90;;;;;;;;;;5096032;28;20182;-46
2023/07/02 09:25:00;;;;;;;5.55;3.58;;;;;;;;;;5094050;28;20234;-47
2023/07/02 09:27:41;;;;;;;7.50;3.50;;;;;;;;;;5094438;28;20199;-47
2023/07/02 09:30:15;;;;;;;4.97;3.72;;;;;;;;;;5095699;28;20186;-48
2023/07/02 09:32:44;;;;;;;4.63;3.40;;;;;;;;;;5095667;28;20191;-50
2023/07/02 09:35:12;;;;;;;10.82;3.53;;;;;;;;;;5093363;28;20297;-50
2023/07/02 09:37:43;;;;;;;6.43;3.47;;;;;;;;;;5095012;28;20213;-50
2023/07/02 09:40:10;;;;;;;7.00;3.28;;;;;;;;;;5092867;28;20244;-50
2023/07/02 09:42:40;;;;;;;4.05;3.10;;;;;;;;;;5094467;28;20256;-48
2023/07/02 09:45:08;;;;;;;7.20;3.67;;;;;;;;;;5095406;28;20214;-49
2023/07/02 09:47:40;;;;;;;6.05;3.47;;;;;;;;;;5095467;28;20195;-49
2023/07/02 09:50:08;;;;;;;12.10;3.63;;;;;;;;;;5093627;28;20191;-48
2023/07/02 09:52:35;;;;;;;6.38;3.45;;;;;;;;;;5094741;28;20558;-48
2023/07/02 09:55:04;;;;;;;5.68;3.63;;;;;;;;;;5095369;28;20202;-50
2023/07/02 09:57:31;;;;;;;9.73;3.97;;;;;;;;;;5093620;28;20195;-50
2023/07/02 10:00:00;;;;;;;4.72;3.20;;;;;;;;;;5093653;28;20679;-51
2023/07/02 10:02:28;;;;;;;6.65;3.15;;;;;;;;;;5093183;28;20215;-52
2023/07/02 10:04:56;;;;;;;7.95;3.20;;;;;;;;;;5094730;28;20303;-49
2023/07/02 10:07:29;;;;;;;7.90;3.72;;;;;;;;;;5092201;28;20193;-51
2023/07/02 10:09:56;;;;;;;5.20;3.10;;;;;;;;;;5095120;28;20639;-50
2023/07/02 10:12:25;;;;;;;6.97;3.35;;;;;;;;;;5093606;28;20675;-50
2023/07/02 10:14:55;;;;;;;7.93;3.35;;;;;;;;;;5093694;28;20557;-49
2023/07/02 10:17:28;;;;;;;8.38;3.90;;;;;;;;;;5093659;28;20312;-48
2023/07/02 10:19:58;;;;;;;4.20;2.97;;;;;;;;;;5095017;28;20191;-47
2023/07/02 10:22:26;;;;;;;5.43;3.50;;;;;;;;;;5094819;28;20206;-47
2023/07/02 10:24:59;;;;;;;6.18;4.07;;;;;;;;;;5094428;28;20222;-47
2023/07/02 10:27:35;;;;;;;6.05;3.88;;;;;;;;;;5094069;28;20229;-46
2023/07/02 10:30:04;;;;;;;9.18;3.60;;;;;;;;;;5094137;28;20182;-47
2023/07/02 10:32:35;;;;;;;5.88;4.30;;;;;;;;;;5093891;28;20202;-50
2023/07/02 10:35:14;;;;;;;6.68;4.28;;;;;;;;;;5094361;28;20191;-47
2023/07/02 10:37:41;;;;;;;6.35;3.40;;;;;;;;;;5093810;28;20197;-46
2023/07/02 10:40:09;;;;;;;10.38;3.97;;;;;;;;;;5093790;28;20207;-47
2023/07/02 10:42:50;;;;;;;6.18;3.88;;;;;;;;;;5094244;28;20199;-46
2023/07/02 10:45:18;;;;;;;6.80;3.95;;;;;;;;;;5093877;28;20212;-47
2023/07/02 10:47:46;;;;;;;6.32;3.92;;;;;;;;;;5093794;28;20299;-47
2023/07/02 10:50:17;;;;;;;6.75;3.78;;;;;;;;;;5093956;28;20198;-46
2023/07/02 10:52:45;;;;;;;5.50;3.90;;;;;;;;;;5091186;28;20208;-46
2023/07/02 10:55:19;;;;;;;6.10;3.50;;;;;;;;;;5093801;28;20214;-47
2023/07/02 10:57:50;;;;;;;6.85;3.30;;;;;;;;;;5091431;28;20193;-47
2023/07/02 11:00:18;;;;;;;3.75;2.88;;;;;;;;;;5091322;28;20594;-47
2023/07/02 11:02:46;;;;;;;5.40;2.85;;;;;;;;;;5093502;28;20242;-47
2023/07/02 11:05:14;;;;;;;4.70;3.00;;;;;;;;;;5093791;28;20279;-48
2023/07/02 11:07:42;;;;;;;6.03;3.70;;;;;;;;;;5092798;28;20210;-46
2023/07/02 11:10:11;;;;;;;6.03;3.50;;;;;;;;;;5091406;28;20246;-46
2023/07/02 11:12:39;;;;;;;6.47;4.13;;;;;;;;;;5093492;28;20191;-49
2023/07/02 11:15:13;;;;;;;5.95;3.45;;;;;;;;;;5093008;28;20667;-48
2023/07/02 11:17:41;;;;;;;6.50;3.90;;;;;;;;;;5093500;28;20194;-48
2023/07/02 11:20:10;;;;;;;6.60;3.95;;;;;;;;;;5093069;28;20197;-47
2023/07/02 11:22:38;;;;;;;5.95;3.97;;;;;;;;;;5090801;28;20282;-47
2023/07/02 11:25:21;;;;;;;5.05;3.60;;;;;;;;;;5093340;28;20218;-48
2023/07/02 11:27:49;;;;;;;9.52;3.83;;;;;;;;;;5093006;28;20544;-47
2023/07/02 11:30:15;;;;;;;6.07;3.63;;;;;;;;;;5092611;28;20213;-48
2023/07/02 11:32:50;;;;;;;6.75;3.38;;;;;;;;;;5093030;28;20187;-47
2023/07/02 11:35:18;;;;;;;7.50;3.78;;;;;;;;;;5093227;28;20202;-47
2023/07/02 11:37:46;;;;;;;8.57;4.28;;;;;;;;;;5093050;28;20206;-48
2023/07/02 11:40:13;;;;;;;5.95;3.72;;;;;;;;;;5072087;28;20551;-47
2023/07/02 11:42:41;;;;;;;5.63;3.35;;;;;;;;;;5081264;28;20213;-49
2023/07/02 11:45:08;;;;;;;9.35;4.65;;;;;;;;;;5091617;28;20236;-51
2023/07/02 11:47:35;;;;;;;8.82;4.78;;;;;;;;;;5092107;28;20205;-48
2023/07/02 11:50:03;;;;;;;6.22;4.05;;;;;;;;;;5092316;28;20259;-48
2023/07/02 11:52:42;;;;;;;7.82;4.13;;;;;;;;;;5091897;28;20228;-47
2023/07/02 11:55:09;;;;;;;5.43;4.03;;;;;;;;;;5092678;28;20202;-47
2023/07/02 11:57:36;;;;;;;6.18;3.95;;;;;;;;;;5093065;28;20194;-45
2023/07/02 12:00:04;;;;;;;5.40;3.83;;;;;;;;;;5093682;28;20202;-45
2023/07/02 12:02:34;;;;;;;8.18;3.92;;;;;;;;;;5093653;28;20569;-47
2023/07/02 12:05:01;;;;;;;6.68;3.05;;;;;;;;;;5093280;28;20215;-45
2023/07/02 12:07:32;;;;;;;5.72;3.08;;;;;;;;;;5093185;28;20186;-47
2023/07/02 12:09:59;;;;;;;3.30;2.15;;;;;;;;;;5097342;28;20285;-47
2023/07/02 12:12:26;;;;;;;4.72;2.70;;;;;;;;;;5095405;28;20195;-49
2023/07/02 12:14:53;;;;;;;3.30;2.42;;;;;;;;;;5096997;28;20198;-46
2023/07/02 12:17:21;;;;;;;4.90;2.10;;;;;;;;;;5096334;28;20197;-49
2023/07/02 12:19:48;;;;;;;3.00;1.70;;;;;;;;;;5093931;28;20191;-48
2023/07/02 12:22:17;;;;;;;3.10;1.70;;;;;;;;;;5096417;28;20198;-48
2023/07/02 12:24:44;;;;;;;2.00;1.63;;;;;;;;;;5097007;28;20570;-48
2023/07/02 12:27:11;;;;;;;2.35;1.92;;;;;;;;;;5096703;28;20195;-45
2023/07/02 12:29:38;;;;;;;2.35;1.65;;;;;;;;;;5096236;28;20205;-48
2023/07/02 12:32:06;;;;;;;2.80;2.00;;;;;;;;;;5096450;28;20678;-45
2023/07/02 12:34:33;;;;;;;2.75;1.90;;;;;;;;;;5096502;28;20191;-48
2023/07/02 12:37:01;;;;;;;3.00;1.70;;;;;;;;;;5096114;28;20206;-47
2023/07/02 12:39:28;;;;;;;3.05;1.95;;;;;;;;;;5095467;28;20205;-44
2023/07/02 12:41:55;;;;;;;6.70;1.60;;;;;;;;;;5096525;28;20199;-46
2023/07/02 12:44:22;;;;;;;3.08;1.80;;;;;;;;;;5096934;28;20207;-46
2023/07/02 12:46:49;;;;;;;4.10;1.95;;;;;;;;;;5096150;28;20187;-45
2023/07/02 12:49:17;;;;;;;3.35;2.25;;;;;;;;;;5096208;28;20206;-47
2023/07/02 12:51:44;;;;;;;2.20;1.73;;;;;;;;;;5095819;28;20210;-46
2023/07/02 12:54:11;;;;;;;7.20;2.05;;;;;;;;;;5096661;28;20210;-45
2023/07/02 12:56:38;;;;;;;3.70;2.60;;;;;;;;;;5096509;28;20209;-45
2023/07/02 12:59:05;;;;;;;4.00;2.55;;;;;;;;;;5096545;28;20576;-45
2023/07/02 13:01:33;;;;;;;4.65;2.55;;;;;;;;;;5096752;28;20191;-45
2023/07/02 13:04:00;;;;;;;3.13;2.40;;;;;;;;;;5096817;28;20230;-45
2023/07/02 13:06:28;;;;;;;3.55;2.55;;;;;;;;;;5096135;28;20234;-46
2023/07/02 13:08:55;;;;;;;2.83;2.30;;;;;;;;;;5095033;28;20581;-45
2023/07/02 13:11:23;;;;;;;4.35;2.30;;;;;;;;;;5096483;28;20203;-45
2023/07/02 13:13:50;;;;;;;3.38;2.30;;;;;;;;;;5096180;28;20203;-44
2023/07/02 13:16:17;;;;;;;4.25;2.15;;;;;;;;;;5096157;28;20206;-45
2023/07/02 13:18:44;;;;;;;5.03;2.58;;;;;;;;;;5096408;28;20233;-44
2023/07/02 13:21:11;;;;;;;2.63;1.98;;;;;;;;;;5096567;28;20564;-44
2023/07/02 13:23:38;;;;;;;3.03;1.90;;;;;;;;;;5096367;28;20235;-44
2023/07/02 13:26:05;;;;;;;2.97;1.98;;;;;;;;;;5096216;28;20231;-44
2023/07/02 13:28:32;;;;;;;3.38;1.90;;;;;;;;;;5096207;28;20202;-44
2023/07/02 13:31:00;;;;;;;1.80;1.40;;;;;;;;;;5096131;28;20199;-44
2023/07/02 13:33:28;;;;;;;2.88;1.50;;;;;;;;;;5096302;28;20205;-44
2023/07/02 13:35:56;;;;;;;2.33;1.65;;;;;;;;;;5096199;28;20214;-44
2023/07/02 13:38:23;;;;;;;2.25;1.63;;;;;;;;;;5095131;28;20264;-44
2023/07/02 13:40:50;;;;;;;2.33;1.63;;;;;;;;;;5096050;28;20572;-44
2023/07/02 13:43:17;;;;;;;3.72;1.80;;;;;;;;;;5095819;28;20665;-44
2023/07/02 13:45:44;;;;;;;5.82;2.00;;;;;;;;;;5096046;28;20223;-45
2023/07/02 13:48:11;;;;;;;2.47;1.77;;;;;;;;;;5096065;28;20206;-44
2023/07/02 13:50:39;;;;;;;2.53;1.67;;;;;;;;;;5095978;28;20203;-44
2023/07/02 13:53:05;;;;;;;3.13;2.03;;;;;;;;;;5095733;28;20202;-45
2023/07/02 13:55:33;;;;;;;9.82;2.00;;;;;;;;;;5095824;28;20211;-45
2023/07/02 13:58:00;;;;;;;2.28;1.60;;;;;;;;;;5094345;28;20295;-44
2023/07/02 14:00:28;;;;;;;3.30;1.90;;;;;;;;;;5096240;28;20206;-44
2023/07/02 14:02:55;;;;;;;9.10;1.70;;;;;;;;;;5095838;28;20197;-45
2023/07/02 14:05:23;;;;;;;2.08;1.70;;;;;;;;;;5095883;28;20618;-44
2023/07/02 14:07:50;;;;;;;2.47;1.83;;;;;;;;;;5095474;28;20202;-44
2023/07/02 14:10:17;;;;;;;3.10;2.10;;;;;;;;;;5095371;28;20202;-44
2023/07/02 14:12:44;;;;;;;2.45;1.50;;;;;;;;;;5095329;28;20199;-44
2023/07/02 14:15:12;;;;;;;1.95;1.40;;;;;;;;;;5095582;28;20202;-44
2023/07/02 14:17:39;;;;;;;1.85;1.52;;;;;;;;;;5095405;28;20225;-44
2023/07/02 14:20:08;;;;;;;2.03;1.40;;;;;;;;;;5095126;28;20213;-45
2023/07/02 14:22:35;;;;;;;2.28;1.67;;;;;;;;;;5095325;28;20230;-45
2023/07/02 14:25:02;;;;;;;1.67;1.20;;;;;;;;;;5095598;28;20253;-44
2023/07/02 14:27:29;;;;;;;5.40;1.40;;;;;;;;;;5095330;28;20207;-43
2023/07/02 14:29:57;;;;;;;2.28;1.17;;;;;;;;;;5095057;28;20207;-45
2023/07/02 14:32:24;;;;;;;2.05;1.58;;;;;;;;;;5094378;28;20198;-44
2023/07/02 14:34:51;;;;;;;2.67;1.70;;;;;;;;;;5094905;28;20674;-44